地図

経路データ

SID SEASON NUMBER BASIN SUBBASIN NAME ISO_TIME NATURE LAT LON WMO_WIND WMO_PRES WMO_AGENCY TRACK_TYPE DIST2LAND LANDFALL IFLAG USA_AGENCY USA_ATCF_ID USA_LAT USA_LON USA_RECORD USA_STATUS USA_WIND USA_PRES USA_SSHS USA_R34_NE USA_R34_SE USA_R34_SW USA_R34_NW USA_R50_NE USA_R50_SE USA_R50_SW USA_R50_NW USA_R64_NE USA_R64_SE USA_R64_SW USA_R64_NW USA_POCI USA_ROCI USA_RMW USA_EYE TOKYO_LAT TOKYO_LON TOKYO_GRADE TOKYO_WIND TOKYO_PRES TOKYO_R50_DIR TOKYO_R50_LONG TOKYO_R50_SHORT TOKYO_R30_DIR TOKYO_R30_LONG TOKYO_R30_SHORT TOKYO_LAND CMA_LAT CMA_LON CMA_CAT CMA_WIND CMA_PRES HKO_LAT HKO_LON HKO_CAT HKO_WIND HKO_PRES NEWDELHI_LAT NEWDELHI_LON NEWDELHI_GRADE NEWDELHI_WIND NEWDELHI_PRES NEWDELHI_CI NEWDELHI_DP NEWDELHI_POCI REUNION_LAT REUNION_LON REUNION_TYPE REUNION_WIND REUNION_PRES REUNION_TNUM REUNION_CI REUNION_RMW REUNION_R34_NE REUNION_R34_SE REUNION_R34_SW REUNION_R34_NW REUNION_R50_NE REUNION_R50_SE REUNION_R50_SW REUNION_R50_NW REUNION_R64_NE REUNION_R64_SE REUNION_R64_SW REUNION_R64_NW BOM_LAT BOM_LON BOM_TYPE BOM_WIND BOM_PRES BOM_TNUM BOM_CI BOM_RMW BOM_R34_NE BOM_R34_SE BOM_R34_SW BOM_R34_NW BOM_R50_NE BOM_R50_SE BOM_R50_SW BOM_R50_NW BOM_R64_NE BOM_R64_SE BOM_R64_SW BOM_R64_NW BOM_ROCI BOM_POCI BOM_EYE BOM_POS_METHOD BOM_PRES_METHOD NADI_LAT NADI_LON NADI_CAT NADI_WIND NADI_PRES WELLINGTON_LAT WELLINGTON_LON WELLINGTON_WIND WELLINGTON_PRES DS824_LAT DS824_LON DS824_STAGE DS824_WIND DS824_PRES TD9636_LAT TD9636_LON TD9636_STAGE TD9636_WIND TD9636_PRES TD9635_LAT TD9635_LON TD9635_WIND TD9635_PRES TD9635_ROCI NEUMANN_LAT NEUMANN_LON NEUMANN_CLASS NEUMANN_WIND NEUMANN_PRES MLC_LAT MLC_LON MLC_CLASS MLC_WIND MLC_PRES USA_GUST BOM_GUST BOM_GUST_PER REUNION_GUST REUNION_GUST_PER USA_SEAHGT USA_SEARAD_NE USA_SEARAD_SE USA_SEARAD_SW USA_SEARAD_NW STORM_SPEED STORM_DIR
1980290N10088 1980 89 NI BB NOT_NAMED 1980-10-16 00:00:00 TS 10.0333 88.0000 main 732 666 O________OO___ jtwc_io IO021980 10.1000 88.0000 -1 10.1000 88.0000 TC 25 9.90000 88.0000 1 17 291
1980290N10088 1980 89 NI BB NOT_NAMED 1980-10-16 03:00:00 TS 10.3431 87.1945 main 666 611 P________PP___ IO021980 10.3904 87.1853 -1 10.3904 87.1853 TC 25 10.2485 87.2130 1 17 292
1980290N10088 1980 89 NI BB NOT_NAMED 1980-10-16 06:00:00 TS 10.6723 86.4134 main 606 554 O________OP___ jtwc_io IO021980 10.7000 86.4000 -1 10.7000 86.4000 TC 25 10.6168 86.4402 1 17 295
1980290N10088 1980 89 NI BB NOT_NAMED 1980-10-16 09:00:00 TS 11.0454 85.6789 main 554 521 P________PP___ IO021980 11.0548 85.6697 -1 11.0548 85.6697 TC 25 11.0267 85.6974 1 16 301
1980290N10088 1980 89 NI BB NOT_NAMED 1980-10-16 12:00:00 TS 11.5000 85.0000 main 521 460 O________OO___ jtwc_io IO021980 11.5000 85.0000 -1 11.5000 85.0000 TC 25 11.5000 85.0000 1 16 308
1980290N10088 1980 89 NI BB NOT_NAMED 1980-10-16 15:00:00 TS 12.0528 84.3673 main 458 387 P________PP___ IO021980 12.0549 84.3699 -1 12.0549 84.3699 TC 25 12.0485 84.3622 1 17 315
1980290N10088 1980 89 NI BB NOT_NAMED 1980-10-16 18:00:00 TS 12.6807 83.7978 main 385 324 O________OP___ jtwc_io IO021980 12.7000 83.8000 -1 12.7000 83.8000 TC 25 12.6420 83.7934 1 17 321
1980290N10088 1980 89 NI BB NOT_NAMED 1980-10-16 21:00:00 TS 13.3615 83.2661 main 324 280 P________PP___ IO021980 13.4225 83.2477 -1 13.4225 83.2477 TC 30 13.2395 83.3028 1 16 325
1980290N10088 1980 89 NI BB NOT_NAMED 1980-10-17 00:00:00 TS 14.0000 82.8333 main 270 217 O________OO___ jtwc_io IO021980 14.1000 82.8000 -1 14.1000 82.8000 TC 35 13.8000 82.9000 2 14 328
1980290N10088 1980 89 NI BB NOT_NAMED 1980-10-17 03:00:00 TS 14.5156 82.5193 main 217 169 P________PP___ IO021980 14.6173 82.4972 -1 14.6173 82.4972 TC 35 14.3121 82.5636 2 11 331
1980290N10088 1980 89 NI BB NOT_NAMED 1980-10-17 06:00:00 TS 14.9256 82.3047 main 169 130 O________OP___ jtwc_io IO021980 15.0000 82.3000 -1 15.0000 82.3000 TC 35 14.7767 82.3142 2 8 333
1980290N10088 1980 89 NI BB NOT_NAMED 1980-10-17 09:00:00 TS 15.2510 82.1291 main 119 95 P________PP___ IO021980 15.2875 82.1274 -1 15.2875 82.1274 TC 35 15.1780 82.1327 2 6 333
1980290N10088 1980 89 NI BB NOT_NAMED 1980-10-17 12:00:00 TS 15.5000 82.0000 main 95 70 O________OO___ jtwc_io IO021980 15.5000 82.0000 -1 15.5000 82.0000 TC 35 15.5000 82.0000 2 5 333
1980290N10088 1980 89 NI BB NOT_NAMED 1980-10-17 15:00:00 TS 15.7250 81.8838 main 70 46 P________PP___ IO021980 15.7150 81.8850 -1 15.7150 81.8850 TC 35 15.7451 81.8814 2 4 335
1980290N10088 1980 89 NI BB NOT_NAMED 1980-10-17 18:00:00 TS 15.9041 81.8015 main 46 35 O________OP___ jtwc_io IO021980 15.9000 81.8000 -1 15.9000 81.8000 TC 35 15.9123 81.8044 2 4 338
1980290N10088 1980 89 NI BB NOT_NAMED 1980-10-17 21:00:00 TS 16.0561 81.7501 main 24 11 P________PP___ IO021980 16.0725 81.7500 -1 16.0725 81.7500 TC 35 16.0233 81.7503 2 3 340
1980290N10088 1980 89 NI BB NOT_NAMED 1980-10-18 00:00:00 TS 16.1667 81.7000 main 11 11 O________OO___ jtwc_io IO021980 16.2000 81.7000 -1 16.2000 81.7000 TC 35 16.1000 81.7000 2 2 323
1980290N10088 1980 89 NI BB NOT_NAMED 1980-10-18 03:00:00 TS 16.2372 81.6056 main 15 10 P________PP___ IO021980 16.2725 81.6000 -1 16.2725 81.6000 TC 30 16.1666 81.6168 2 2 299
1980290N10088 1980 89 NI BB NOT_NAMED 1980-10-18 06:00:00 TS 16.2692 81.5116 main 11 11 O________OP___ jtwc_io IO021980 16.3000 81.5000 -1 16.3000 81.5000 TC 25 16.2075 81.5349 2 2 284
1980290N10088 1980 89 NI BB NOT_NAMED 1980-10-18 09:00:00 TS 16.2766 81.4485 main 10 10 P________PP___ IO021980 16.2925 81.4425 -1 16.2925 81.4425 TC 25 16.2447 81.4606 2 1 286
1980290N10088 1980 89 NI BB NOT_NAMED 1980-10-18 12:00:00 TS 16.3000 81.4000 main 10 0 O________OO___ jtwc_io IO021980 16.3000 81.4000 -1 16.3000 81.4000 TC 25 16.3000 81.4000 1 1 320
1980290N10088 1980 89 NI BB NOT_NAMED 1980-10-18 15:00:00 TS 16.3817 81.3525 main 0 0 P________PP___ IO021980 16.3775 81.3500 -1 16.3775 81.3500 TC 25 16.3900 81.3575 1 2 337
1980290N10088 1980 89 NI BB NOT_NAMED 1980-10-18 18:00:00 TS 16.5033 81.3100 main 0 0 O________OP___ jtwc_io IO021980 16.5000 81.3000 -1 16.5000 81.3000 TC 25 16.5100 81.3300 1 3 343
1980290N10088 1980 89 NI BB NOT_NAMED 1980-10-18 21:00:00 TS 16.6467 81.2709 main 0 0 P________PP___ IO021980 16.6450 81.2500 -1 16.6450 81.2500 TC 25 16.6500 81.3125 1 3 347
1980290N10088 1980 89 NI BB NOT_NAMED 1980-10-19 00:00:00 TS 16.8000 81.2333 main 0 O________OO___ jtwc_io IO021980 16.8000 81.2000 -1 16.8000 81.2000 TC 25 16.8000 81.3000 1 3 346

IBTrACS Databaseについて

本データベースは、米国NOAAが公開する1842年以降の世界の熱帯低気圧のベストトラックデータアーカイブInternational Best Track Archive for Climate Stewardship (IBTrACS)を、ウェブで閲覧しやすい形式に変換したものです。

最終更新日:2021-10-21